San Clemente, California
Current Conditions -  °F | °C
As of 9:56 AM on Monday 22 Dec 2014 (Local Time) from KNXF Reporting Station
Haze Haze  
Wind Chill: 63°   Ceiling: Unl
Heat Index: 63°   Visibility: 5mi
Dew Point: 58°   Wind: 5mph
Humidity: 84%   Direction: 250°WSW
Pressure: 30.05"   Gusts: NA
Location:  33.43°N, 117.6°W
Report Text: KNXF 221756Z AUTO 25004KT 5SM HZ CLR 17/14 A3005 RMK AO2 SLP262 T01720144 10172 20117 51008 $
Loading
Personal Weather Stations






























Interactive Weather Map New forecast layout! Learn more

10-Day Weather Forecast

Advertisements
Track Severe Weather on mobile